sensor_id;sensor_type;location;lat;lon;timestamp;P1;durP1;ratioP1;P2;durP2;ratioP2
33413;SDS011;60055;41.884;12.534;2023-10-31T00:01:06;61.88;;;9.32;;
33413;SDS011;60055;41.884;12.534;2023-10-31T00:03:32;55.22;;;8.85;;
33413;SDS011;60055;41.884;12.534;2023-10-31T00:05:57;55.42;;;8.63;;
33413;SDS011;60055;41.884;12.534;2023-10-31T00:08:23;56.38;;;8.80;;
33413;SDS011;60055;41.884;12.534;2023-10-31T00:10:49;60.72;;;9.43;;
33413;SDS011;60055;41.884;12.534;2023-10-31T00:13:15;68.13;;;9.25;;
33413;SDS011;60055;41.884;12.534;2023-10-31T00:15:40;56.75;;;9.75;;
33413;SDS011;60055;41.884;12.534;2023-10-31T00:18:06;61.92;;;10.10;;
33413;SDS011;60055;41.884;12.534;2023-10-31T00:20:31;65.30;;;9.57;;
33413;SDS011;60055;41.884;12.534;2023-10-31T00:22:57;68.45;;;9.77;;
33413;SDS011;60055;41.884;12.534;2023-10-31T00:25:22;67.00;;;10.00;;
33413;SDS011;60055;41.884;12.534;2023-10-31T00:27:51;61.45;;;10.30;;
33413;SDS011;60055;41.884;12.534;2023-10-31T00:30:16;58.10;;;9.98;;
33413;SDS011;60055;41.884;12.534;2023-10-31T00:32:42;68.53;;;11.27;;
33413;SDS011;60055;41.884;12.534;2023-10-31T00:35:07;65.38;;;10.02;;
33413;SDS011;60055;41.884;12.534;2023-10-31T00:37:33;62.28;;;9.48;;
33413;SDS011;60055;41.884;12.534;2023-10-31T00:39:58;74.85;;;10.85;;
33413;SDS011;60055;41.884;12.534;2023-10-31T00:42:24;67.75;;;11.05;;
33413;SDS011;60055;41.884;12.534;2023-10-31T00:44:49;69.13;;;11.32;;
33413;SDS011;60055;41.884;12.534;2023-10-31T00:47:14;86.03;;;11.57;;
33413;SDS011;60055;41.884;12.534;2023-10-31T00:49:40;76.15;;;10.65;;
33413;SDS011;60055;41.884;12.534;2023-10-31T00:52:06;60.70;;;9.52;;
33413;SDS011;60055;41.884;12.534;2023-10-31T00:54:31;61.92;;;8.45;;
33413;SDS011;60055;41.884;12.534;2023-10-31T00:56:56;53.42;;;8.80;;
33413;SDS011;60055;41.884;12.534;2023-10-31T00:59:22;53.92;;;8.88;;
33413;SDS011;60055;41.884;12.534;2023-10-31T01:01:47;56.78;;;8.93;;
33413;SDS011;60055;41.884;12.534;2023-10-31T01:04:12;52.88;;;7.97;;
33413;SDS011;60055;41.884;12.534;2023-10-31T01:06:41;51.00;;;7.00;;
33413;SDS011;60055;41.884;12.534;2023-10-31T01:09:07;41.10;;;6.80;;
33413;SDS011;60055;41.884;12.534;2023-10-31T01:11:33;44.83;;;6.05;;
33413;SDS011;60055;41.884;12.534;2023-10-31T01:13:58;37.17;;;6.38;;
33413;SDS011;60055;41.884;12.534;2023-10-31T01:16:23;41.50;;;5.80;;
33413;SDS011;60055;41.884;12.534;2023-10-31T01:18:49;39.30;;;5.85;;
33413;SDS011;60055;41.884;12.534;2023-10-31T01:21:14;42.72;;;7.20;;
33413;SDS011;60055;41.884;12.534;2023-10-31T01:23:40;38.55;;;6.00;;
33413;SDS011;60055;41.884;12.534;2023-10-31T01:26:05;42.30;;;6.22;;
33413;SDS011;60055;41.884;12.534;2023-10-31T01:28:31;28.15;;;4.85;;
33413;SDS011;60055;41.884;12.534;2023-10-31T01:30:56;35.75;;;6.22;;
33413;SDS011;60055;41.884;12.534;2023-10-31T01:33:22;42.25;;;5.70;;
33413;SDS011;60055;41.884;12.534;2023-10-31T01:35:47;34.42;;;5.72;;
33413;SDS011;60055;41.884;12.534;2023-10-31T01:38:13;32.30;;;5.72;;
33413;SDS011;60055;41.884;12.534;2023-10-31T01:40:39;29.85;;;5.53;;
33413;SDS011;60055;41.884;12.534;2023-10-31T01:43:04;33.45;;;5.75;;
33413;SDS011;60055;41.884;12.534;2023-10-31T01:45:29;31.48;;;5.28;;
33413;SDS011;60055;41.884;12.534;2023-10-31T01:47:55;31.42;;;4.75;;
33413;SDS011;60055;41.884;12.534;2023-10-31T01:50:20;29.77;;;4.63;;
33413;SDS011;60055;41.884;12.534;2023-10-31T01:52:46;27.45;;;4.32;;
33413;SDS011;60055;41.884;12.534;2023-10-31T01:55:12;29.42;;;4.60;;
33413;SDS011;60055;41.884;12.534;2023-10-31T01:57:38;24.92;;;4.13;;
33413;SDS011;60055;41.884;12.534;2023-10-31T02:00:05;27.20;;;4.45;;
33413;SDS011;60055;41.884;12.534;2023-10-31T02:02:31;30.70;;;4.47;;
33413;SDS011;60055;41.884;12.534;2023-10-31T02:04:58;28.48;;;4.78;;
33413;SDS011;60055;41.884;12.534;2023-10-31T02:07:24;25.23;;;4.53;;
33413;SDS011;60055;41.884;12.534;2023-10-31T02:09:49;25.33;;;4.60;;
33413;SDS011;60055;41.884;12.534;2023-10-31T02:12:34;27.40;;;5.05;;
33413;SDS011;60055;41.884;12.534;2023-10-31T02:15:01;27.08;;;4.65;;
33413;SDS011;60055;41.884;12.534;2023-10-31T02:17:27;23.17;;;4.18;;
33413;SDS011;60055;41.884;12.534;2023-10-31T02:19:53;32.63;;;4.60;;
33413;SDS011;60055;41.884;12.534;2023-10-31T02:22:19;27.90;;;5.00;;
33413;SDS011;60055;41.884;12.534;2023-10-31T02:24:44;25.83;;;5.00;;
33413;SDS011;60055;41.884;12.534;2023-10-31T02:27:10;25.58;;;4.75;;
33413;SDS011;60055;41.884;12.534;2023-10-31T02:29:35;26.83;;;3.90;;
33413;SDS011;60055;41.884;12.534;2023-10-31T02:32:01;33.35;;;4.88;;
33413;SDS011;60055;41.884;12.534;2023-10-31T02:34:26;27.50;;;4.90;;
33413;SDS011;60055;41.884;12.534;2023-10-31T02:36:52;27.63;;;4.57;;
33413;SDS011;60055;41.884;12.534;2023-10-31T02:39:17;24.25;;;4.30;;
33413;SDS011;60055;41.884;12.534;2023-10-31T02:41:43;21.27;;;4.30;;
33413;SDS011;60055;41.884;12.534;2023-10-31T02:44:08;21.88;;;4.25;;
33413;SDS011;60055;41.884;12.534;2023-10-31T02:46:37;24.05;;;4.38;;
33413;SDS011;60055;41.884;12.534;2023-10-31T02:49:03;33.97;;;4.32;;
33413;SDS011;60055;41.884;12.534;2023-10-31T02:51:28;22.27;;;4.15;;
33413;SDS011;60055;41.884;12.534;2023-10-31T02:53:54;22.48;;;3.47;;
33413;SDS011;60055;41.884;12.534;2023-10-31T02:56:19;21.08;;;4.07;;
33413;SDS011;60055;41.884;12.534;2023-10-31T02:58:45;23.33;;;4.30;;
33413;SDS011;60055;41.884;12.534;2023-10-31T03:01:10;23.95;;;4.38;;
33413;SDS011;60055;41.884;12.534;2023-10-31T03:03:36;27.00;;;4.03;;
33413;SDS011;60055;41.884;12.534;2023-10-31T03:06:02;24.80;;;4.80;;
33413;SDS011;60055;41.884;12.534;2023-10-31T03:08:27;19.23;;;4.30;;
33413;SDS011;60055;41.884;12.534;2023-10-31T03:10:53;30.48;;;4.50;;
33413;SDS011;60055;41.884;12.534;2023-10-31T03:13:18;22.73;;;3.97;;
33413;SDS011;60055;41.884;12.534;2023-10-31T03:15:45;27.27;;;4.90;;
33413;SDS011;60055;41.884;12.534;2023-10-31T03:18:11;26.75;;;4.70;;
33413;SDS011;60055;41.884;12.534;2023-10-31T03:20:36;23.77;;;5.15;;
33413;SDS011;60055;41.884;12.534;2023-10-31T03:23:01;35.15;;;5.60;;
33413;SDS011;60055;41.884;12.534;2023-10-31T03:25:27;33.95;;;5.53;;
33413;SDS011;60055;41.884;12.534;2023-10-31T03:27:52;29.60;;;6.50;;
33413;SDS011;60055;41.884;12.534;2023-10-31T03:30:18;29.15;;;6.10;;
33413;SDS011;60055;41.884;12.534;2023-10-31T03:32:43;29.73;;;6.63;;
33413;SDS011;60055;41.884;12.534;2023-10-31T03:35:08;33.17;;;7.40;;
33413;SDS011;60055;41.884;12.534;2023-10-31T03:37:34;25.05;;;6.70;;
33413;SDS011;60055;41.884;12.534;2023-10-31T03:40:01;33.83;;;7.07;;
33413;SDS011;60055;41.884;12.534;2023-10-31T03:42:26;24.50;;;5.70;;
33413;SDS011;60055;41.884;12.534;2023-10-31T03:44:51;21.33;;;4.63;;
33413;SDS011;60055;41.884;12.534;2023-10-31T03:47:17;26.98;;;4.82;;
33413;SDS011;60055;41.884;12.534;2023-10-31T03:49:42;20.63;;;5.38;;
33413;SDS011;60055;41.884;12.534;2023-10-31T03:52:08;23.10;;;5.38;;
33413;SDS011;60055;41.884;12.534;2023-10-31T03:54:33;20.20;;;5.20;;
33413;SDS011;60055;41.884;12.534;2023-10-31T03:56:59;29.27;;;5.68;;
33413;SDS011;60055;41.884;12.534;2023-10-31T03:59:24;28.73;;;5.10;;
33413;SDS011;60055;41.884;12.534;2023-10-31T04:01:50;27.17;;;5.55;;
33413;SDS011;60055;41.884;12.534;2023-10-31T04:04:15;26.77;;;5.63;;
33413;SDS011;60055;41.884;12.534;2023-10-31T04:06:40;20.88;;;4.68;;
33413;SDS011;60055;41.884;12.534;2023-10-31T04:09:07;22.13;;;5.35;;
33413;SDS011;60055;41.884;12.534;2023-10-31T04:11:32;18.75;;;4.90;;
33413;SDS011;60055;41.884;12.534;2023-10-31T04:13:58;24.77;;;5.72;;
33413;SDS011;60055;41.884;12.534;2023-10-31T04:16:23;20.80;;;5.10;;
33413;SDS011;60055;41.884;12.534;2023-10-31T04:18:48;25.83;;;5.13;;
33413;SDS011;60055;41.884;12.534;2023-10-31T04:21:14;21.75;;;4.97;;
33413;SDS011;60055;41.884;12.534;2023-10-31T04:23:39;22.05;;;5.10;;
33413;SDS011;60055;41.884;12.534;2023-10-31T04:26:05;24.67;;;5.05;;
33413;SDS011;60055;41.884;12.534;2023-10-31T04:28:30;23.80;;;4.70;;
33413;SDS011;60055;41.884;12.534;2023-10-31T04:30:56;18.23;;;4.50;;
33413;SDS011;60055;41.884;12.534;2023-10-31T04:33:21;19.33;;;4.38;;
33413;SDS011;60055;41.884;12.534;2023-10-31T04:35:46;19.83;;;4.72;;
33413;SDS011;60055;41.884;12.534;2023-10-31T04:38:12;21.50;;;4.97;;
33413;SDS011;60055;41.884;12.534;2023-10-31T04:40:37;21.00;;;4.85;;
33413;SDS011;60055;41.884;12.534;2023-10-31T04:43:03;18.50;;;4.55;;
33413;SDS011;60055;41.884;12.534;2023-10-31T04:45:28;23.10;;;4.72;;
33413;SDS011;60055;41.884;12.534;2023-10-31T04:47:54;17.17;;;4.40;;
33413;SDS011;60055;41.884;12.534;2023-10-31T04:50:19;21.65;;;4.97;;
33413;SDS011;60055;41.884;12.534;2023-10-31T04:52:45;19.20;;;4.60;;
33413;SDS011;60055;41.884;12.534;2023-10-31T04:55:10;18.02;;;5.05;;
33413;SDS011;60055;41.884;12.534;2023-10-31T04:57:36;19.35;;;4.63;;
33413;SDS011;60055;41.884;12.534;2023-10-31T05:00:01;20.95;;;4.80;;
33413;SDS011;60055;41.884;12.534;2023-10-31T05:02:28;21.92;;;4.95;;
33413;SDS011;60055;41.884;12.534;2023-10-31T05:04:54;23.10;;;5.20;;
33413;SDS011;60055;41.884;12.534;2023-10-31T05:07:19;23.10;;;5.20;;
33413;SDS011;60055;41.884;12.534;2023-10-31T05:09:45;19.13;;;4.95;;
33413;SDS011;60055;41.884;12.534;2023-10-31T05:12:10;21.67;;;5.68;;
33413;SDS011;60055;41.884;12.534;2023-10-31T05:14:36;21.08;;;5.53;;
33413;SDS011;60055;41.884;12.534;2023-10-31T05:17:01;19.35;;;5.07;;
33413;SDS011;60055;41.884;12.534;2023-10-31T05:19:27;19.92;;;4.72;;
33413;SDS011;60055;41.884;12.534;2023-10-31T05:21:53;21.75;;;4.47;;
33413;SDS011;60055;41.884;12.534;2023-10-31T05:24:18;17.48;;;4.40;;
33413;SDS011;60055;41.884;12.534;2023-10-31T05:26:44;23.08;;;5.07;;
33413;SDS011;60055;41.884;12.534;2023-10-31T05:29:10;17.48;;;4.78;;
33413;SDS011;60055;41.884;12.534;2023-10-31T05:31:38;18.70;;;4.10;;
33413;SDS011;60055;41.884;12.534;2023-10-31T05:34:03;17.63;;;4.47;;
33413;SDS011;60055;41.884;12.534;2023-10-31T05:36:29;18.25;;;4.60;;
33413;SDS011;60055;41.884;12.534;2023-10-31T05:38:55;20.45;;;4.72;;
33413;SDS011;60055;41.884;12.534;2023-10-31T05:41:20;17.25;;;3.63;;
33413;SDS011;60055;41.884;12.534;2023-10-31T05:43:46;15.45;;;3.63;;
33413;SDS011;60055;41.884;12.534;2023-10-31T05:46:11;22.38;;;4.20;;
33413;SDS011;60055;41.884;12.534;2023-10-31T05:48:40;21.23;;;4.05;;
33413;SDS011;60055;41.884;12.534;2023-10-31T05:51:13;17.83;;;4.15;;
33413;SDS011;60055;41.884;12.534;2023-10-31T05:53:44;17.13;;;4.00;;
33413;SDS011;60055;41.884;12.534;2023-10-31T05:56:13;18.80;;;4.57;;
33413;SDS011;60055;41.884;12.534;2023-10-31T05:58:41;18.75;;;4.57;;
33413;SDS011;60055;41.884;12.534;2023-10-31T06:01:07;19.42;;;5.00;;
33413;SDS011;60055;41.884;12.534;2023-10-31T06:03:33;24.70;;;4.38;;
33413;SDS011;60055;41.884;12.534;2023-10-31T06:05:58;23.35;;;4.15;;
33413;SDS011;60055;41.884;12.534;2023-10-31T06:08:24;18.35;;;4.20;;
33413;SDS011;60055;41.884;12.534;2023-10-31T06:10:52;22.23;;;4.45;;
33413;SDS011;60055;41.884;12.534;2023-10-31T06:13:18;18.98;;;4.03;;
33413;SDS011;60055;41.884;12.534;2023-10-31T06:15:44;18.13;;;4.43;;
33413;SDS011;60055;41.884;12.534;2023-10-31T06:18:09;22.20;;;4.50;;
33413;SDS011;60055;41.884;12.534;2023-10-31T06:20:35;18.45;;;5.32;;
33413;SDS011;60055;41.884;12.534;2023-10-31T06:23:01;17.20;;;5.30;;
33413;SDS011;60055;41.884;12.534;2023-10-31T06:25:28;20.20;;;4.65;;
33413;SDS011;60055;41.884;12.534;2023-10-31T06:27:54;15.43;;;4.28;;
33413;SDS011;60055;41.884;12.534;2023-10-31T06:30:20;15.05;;;3.50;;
33413;SDS011;60055;41.884;12.534;2023-10-31T06:32:45;20.48;;;3.60;;
33413;SDS011;60055;41.884;12.534;2023-10-31T06:35:11;12.90;;;3.13;;
33413;SDS011;60055;41.884;12.534;2023-10-31T06:37:36;15.32;;;3.03;;
33413;SDS011;60055;41.884;12.534;2023-10-31T06:40:02;19.27;;;3.22;;
33413;SDS011;60055;41.884;12.534;2023-10-31T06:42:29;12.88;;;3.15;;
33413;SDS011;60055;41.884;12.534;2023-10-31T06:44:55;13.45;;;3.28;;
33413;SDS011;60055;41.884;12.534;2023-10-31T06:47:20;14.68;;;2.55;;
33413;SDS011;60055;41.884;12.534;2023-10-31T06:49:46;16.90;;;3.15;;
33413;SDS011;60055;41.884;12.534;2023-10-31T06:52:11;16.33;;;3.40;;
33413;SDS011;60055;41.884;12.534;2023-10-31T06:54:37;15.52;;;2.65;;
33413;SDS011;60055;41.884;12.534;2023-10-31T06:57:02;14.18;;;3.03;;
33413;SDS011;60055;41.884;12.534;2023-10-31T06:59:27;20.08;;;4.53;;
33413;SDS011;60055;41.884;12.534;2023-10-31T07:01:54;20.67;;;4.22;;
33413;SDS011;60055;41.884;12.534;2023-10-31T07:04:19;16.70;;;3.85;;
33413;SDS011;60055;41.884;12.534;2023-10-31T07:06:45;16.75;;;3.03;;
33413;SDS011;60055;41.884;12.534;2023-10-31T07:09:10;17.50;;;3.42;;
33413;SDS011;60055;41.884;12.534;2023-10-31T07:11:36;17.20;;;3.03;;
33413;SDS011;60055;41.884;12.534;2023-10-31T07:14:01;16.13;;;2.95;;
33413;SDS011;60055;41.884;12.534;2023-10-31T07:16:27;17.40;;;3.30;;
33413;SDS011;60055;41.884;12.534;2023-10-31T07:18:53;12.82;;;2.75;;
33413;SDS011;60055;41.884;12.534;2023-10-31T07:21:19;19.58;;;3.17;;
33413;SDS011;60055;41.884;12.534;2023-10-31T07:23:44;19.65;;;3.20;;
33413;SDS011;60055;41.884;12.534;2023-10-31T07:26:10;31.63;;;3.55;;
33413;SDS011;60055;41.884;12.534;2023-10-31T07:28:35;29.40;;;3.85;;
33413;SDS011;60055;41.884;12.534;2023-10-31T07:31:01;28.40;;;3.22;;
33413;SDS011;60055;41.884;12.534;2023-10-31T07:33:26;18.08;;;3.22;;
33413;SDS011;60055;41.884;12.534;2023-10-31T07:35:52;34.08;;;3.72;;
33413;SDS011;60055;41.884;12.534;2023-10-31T07:38:17;24.48;;;3.28;;
33413;SDS011;60055;41.884;12.534;2023-10-31T07:40:43;24.08;;;3.10;;
33413;SDS011;60055;41.884;12.534;2023-10-31T07:43:08;22.23;;;3.40;;
33413;SDS011;60055;41.884;12.534;2023-10-31T07:45:34;17.52;;;3.28;;
33413;SDS011;60055;41.884;12.534;2023-10-31T07:48:00;27.30;;;3.60;;
33413;SDS011;60055;41.884;12.534;2023-10-31T07:50:26;22.65;;;3.88;;
33413;SDS011;60055;41.884;12.534;2023-10-31T07:52:52;22.20;;;3.33;;
33413;SDS011;60055;41.884;12.534;2023-10-31T07:55:18;17.40;;;3.28;;
33413;SDS011;60055;41.884;12.534;2023-10-31T07:57:43;24.35;;;4.05;;
33413;SDS011;60055;41.884;12.534;2023-10-31T08:00:10;29.35;;;3.60;;
33413;SDS011;60055;41.884;12.534;2023-10-31T08:02:36;34.95;;;3.90;;
33413;SDS011;60055;41.884;12.534;2023-10-31T08:05:01;17.90;;;2.88;;
33413;SDS011;60055;41.884;12.534;2023-10-31T08:07:27;24.40;;;3.72;;
33413;SDS011;60055;41.884;12.534;2023-10-31T08:09:55;32.00;;;4.00;;
33413;SDS011;60055;41.884;12.534;2023-10-31T08:12:21;34.90;;;3.78;;
33413;SDS011;60055;41.884;12.534;2023-10-31T08:14:47;22.20;;;3.85;;
33413;SDS011;60055;41.884;12.534;2023-10-31T08:17:12;24.67;;;3.20;;
33413;SDS011;60055;41.884;12.534;2023-10-31T08:19:37;20.13;;;3.00;;
33413;SDS011;60055;41.884;12.534;2023-10-31T08:22:03;20.88;;;3.17;;
33413;SDS011;60055;41.884;12.534;2023-10-31T08:24:28;21.08;;;3.78;;
33413;SDS011;60055;41.884;12.534;2023-10-31T08:26:53;21.38;;;3.30;;
33413;SDS011;60055;41.884;12.534;2023-10-31T08:29:19;24.65;;;3.80;;
33413;SDS011;60055;41.884;12.534;2023-10-31T08:31:44;24.92;;;3.47;;
33413;SDS011;60055;41.884;12.534;2023-10-31T08:34:10;19.33;;;3.90;;
33413;SDS011;60055;41.884;12.534;2023-10-31T08:36:35;20.35;;;3.20;;
33413;SDS011;60055;41.884;12.534;2023-10-31T08:39:01;22.58;;;2.92;;
33413;SDS011;60055;41.884;12.534;2023-10-31T08:41:26;20.17;;;2.90;;
33413;SDS011;60055;41.884;12.534;2023-10-31T08:43:52;17.08;;;3.00;;
33413;SDS011;60055;41.884;12.534;2023-10-31T08:46:18;23.85;;;3.30;;
33413;SDS011;60055;41.884;12.534;2023-10-31T08:48:44;19.67;;;2.80;;
33413;SDS011;60055;41.884;12.534;2023-10-31T08:51:09;30.42;;;3.55;;
33413;SDS011;60055;41.884;12.534;2023-10-31T08:53:35;57.00;;;5.78;;
33413;SDS011;60055;41.884;12.534;2023-10-31T08:56:00;26.85;;;3.45;;
33413;SDS011;60055;41.884;12.534;2023-10-31T08:58:27;142.07;;;7.95;;
33413;SDS011;60055;41.884;12.534;2023-10-31T09:00:53;53.42;;;4.63;;
33413;SDS011;60055;41.884;12.534;2023-10-31T09:03:18;20.80;;;2.70;;
33413;SDS011;60055;41.884;12.534;2023-10-31T09:05:44;37.20;;;3.50;;
33413;SDS011;60055;41.884;12.534;2023-10-31T09:08:09;25.92;;;3.63;;
33413;SDS011;60055;41.884;12.534;2023-10-31T09:10:36;21.35;;;3.03;;
33413;SDS011;60055;41.884;12.534;2023-10-31T09:13:04;18.02;;;2.78;;
33413;SDS011;60055;41.884;12.534;2023-10-31T09:15:30;20.25;;;3.10;;
33413;SDS011;60055;41.884;12.534;2023-10-31T09:17:55;22.95;;;3.25;;
33413;SDS011;60055;41.884;12.534;2023-10-31T09:20:21;35.42;;;3.65;;
33413;SDS011;60055;41.884;12.534;2023-10-31T09:22:46;13.50;;;2.58;;
33413;SDS011;60055;41.884;12.534;2023-10-31T09:25:12;26.58;;;2.72;;
33413;SDS011;60055;41.884;12.534;2023-10-31T09:27:39;27.75;;;3.00;;
33413;SDS011;60055;41.884;12.534;2023-10-31T09:30:05;15.57;;;2.80;;
33413;SDS011;60055;41.884;12.534;2023-10-31T09:32:31;19.58;;;3.28;;
33413;SDS011;60055;41.884;12.534;2023-10-31T09:34:57;20.88;;;3.28;;
33413;SDS011;60055;41.884;12.534;2023-10-31T09:37:23;67.10;;;3.83;;
33413;SDS011;60055;41.884;12.534;2023-10-31T09:39:48;13.15;;;2.90;;
33413;SDS011;60055;41.884;12.534;2023-10-31T09:42:13;22.98;;;2.60;;
33413;SDS011;60055;41.884;12.534;2023-10-31T09:44:39;19.50;;;2.75;;
33413;SDS011;60055;41.884;12.534;2023-10-31T09:47:05;26.23;;;3.00;;
33413;SDS011;60055;41.884;12.534;2023-10-31T09:49:31;21.75;;;2.83;;
33413;SDS011;60055;41.884;12.534;2023-10-31T09:51:57;22.60;;;2.80;;
33413;SDS011;60055;41.884;12.534;2023-10-31T09:54:24;21.65;;;2.75;;
33413;SDS011;60055;41.884;12.534;2023-10-31T09:56:51;49.83;;;3.78;;
33413;SDS011;60055;41.884;12.534;2023-10-31T09:59:16;24.77;;;3.13;;
33413;SDS011;60055;41.884;12.534;2023-10-31T10:01:42;19.75;;;2.70;;
33413;SDS011;60055;41.884;12.534;2023-10-31T10:04:08;17.90;;;2.22;;
33413;SDS011;60055;41.884;12.534;2023-10-31T10:06:33;16.15;;;2.40;;
33413;SDS011;60055;41.884;12.534;2023-10-31T10:08:59;10.55;;;2.05;;
33413;SDS011;60055;41.884;12.534;2023-10-31T10:11:25;20.27;;;2.40;;
33413;SDS011;60055;41.884;12.534;2023-10-31T10:13:53;20.80;;;2.40;;
33413;SDS011;60055;41.884;12.534;2023-10-31T10:16:28;19.90;;;2.47;;
33413;SDS011;60055;41.884;12.534;2023-10-31T10:18:57;18.95;;;2.92;;
33413;SDS011;60055;41.884;12.534;2023-10-31T10:21:53;17.02;;;2.67;;
33413;SDS011;60055;41.884;12.534;2023-10-31T10:24:23;17.20;;;3.15;;
33413;SDS011;60055;41.884;12.534;2023-10-31T10:26:52;14.65;;;2.28;;
33413;SDS011;60055;41.884;12.534;2023-10-31T10:29:18;22.27;;;2.58;;
33413;SDS011;60055;41.884;12.534;2023-10-31T10:31:43;29.20;;;3.22;;
33413;SDS011;60055;41.884;12.534;2023-10-31T10:34:10;23.90;;;2.63;;
33413;SDS011;60055;41.884;12.534;2023-10-31T10:36:37;18.13;;;2.50;;
33413;SDS011;60055;41.884;12.534;2023-10-31T10:39:04;18.52;;;4.45;;
33413;SDS011;60055;41.884;12.534;2023-10-31T10:41:31;25.42;;;2.92;;
33413;SDS011;60055;41.884;12.534;2023-10-31T10:44:04;31.15;;;2.75;;
33413;SDS011;60055;41.884;12.534;2023-10-31T10:46:34;21.70;;;2.17;;
33413;SDS011;60055;41.884;12.534;2023-10-31T10:49:04;15.65;;;2.25;;
33413;SDS011;60055;41.884;12.534;2023-10-31T10:54:26;132.25;;;12.45;;
33413;SDS011;60055;41.884;12.534;2023-10-31T10:57:08;38.33;;;5.60;;
33413;SDS011;60055;41.884;12.534;2023-10-31T10:59:40;44.65;;;7.82;;
33413;SDS011;60055;41.884;12.534;2023-10-31T11:02:07;31.40;;;3.30;;
33413;SDS011;60055;41.884;12.534;2023-10-31T11:04:35;14.75;;;2.58;;
33413;SDS011;60055;41.884;12.534;2023-10-31T11:07:01;15.85;;;2.40;;
33413;SDS011;60055;41.884;12.534;2023-10-31T11:09:27;132.80;;;5.38;;
33413;SDS011;60055;41.884;12.534;2023-10-31T11:11:57;34.55;;;3.10;;
33413;SDS011;60055;41.884;12.534;2023-10-31T11:14:23;18.25;;;2.10;;
33413;SDS011;60055;41.884;12.534;2023-10-31T11:16:54;42.83;;;3.40;;
33413;SDS011;60055;41.884;12.534;2023-10-31T11:19:22;15.27;;;1.83;;
33413;SDS011;60055;41.884;12.534;2023-10-31T11:21:56;16.38;;;1.95;;
33413;SDS011;60055;41.884;12.534;2023-10-31T11:24:23;14.80;;;2.00;;
33413;SDS011;60055;41.884;12.534;2023-10-31T11:26:53;18.70;;;2.60;;
33413;SDS011;60055;41.884;12.534;2023-10-31T11:29:24;12.55;;;2.05;;
33413;SDS011;60055;41.884;12.534;2023-10-31T11:31:50;13.40;;;1.70;;
33413;SDS011;60055;41.884;12.534;2023-10-31T11:34:16;17.58;;;2.28;;
33413;SDS011;60055;41.884;12.534;2023-10-31T11:36:44;17.83;;;2.30;;
33413;SDS011;60055;41.884;12.534;2023-10-31T11:39:12;11.50;;;1.90;;
33413;SDS011;60055;41.884;12.534;2023-10-31T11:41:55;32.33;;;3.15;;
33413;SDS011;60055;41.884;12.534;2023-10-31T11:44:27;14.90;;;2.30;;
33413;SDS011;60055;41.884;12.534;2023-10-31T11:46:52;16.55;;;2.30;;
33413;SDS011;60055;41.884;12.534;2023-10-31T11:52:15;16.83;;;2.20;;
33413;SDS011;60055;41.884;12.534;2023-10-31T11:54:42;16.60;;;2.70;;
33413;SDS011;60055;41.884;12.534;2023-10-31T11:57:08;12.50;;;2.60;;
33413;SDS011;60055;41.884;12.534;2023-10-31T11:59:37;20.05;;;2.80;;
33413;SDS011;60055;41.884;12.534;2023-10-31T12:02:23;16.65;;;2.58;;
33413;SDS011;60055;41.884;12.534;2023-10-31T12:04:48;15.75;;;2.40;;
33413;SDS011;60055;41.884;12.534;2023-10-31T12:07:14;16.95;;;2.40;;
33413;SDS011;60055;41.884;12.534;2023-10-31T12:09:46;14.93;;;2.40;;
33413;SDS011;60055;41.884;12.534;2023-10-31T12:12:12;19.63;;;2.90;;
33413;SDS011;60055;41.884;12.534;2023-10-31T12:14:38;29.67;;;2.88;;
33413;SDS011;60055;41.884;12.534;2023-10-31T12:17:04;35.88;;;3.90;;
33413;SDS011;60055;41.884;12.534;2023-10-31T12:19:30;34.40;;;3.47;;
33413;SDS011;60055;41.884;12.534;2023-10-31T12:21:55;32.60;;;3.70;;
33413;SDS011;60055;41.884;12.534;2023-10-31T12:24:21;18.05;;;3.33;;
33413;SDS011;60055;41.884;12.534;2023-10-31T12:26:47;17.95;;;3.10;;
33413;SDS011;60055;41.884;12.534;2023-10-31T12:29:13;16.10;;;2.53;;
33413;SDS011;60055;41.884;12.534;2023-10-31T12:31:44;34.80;;;4.00;;
33413;SDS011;60055;41.884;12.534;2023-10-31T12:34:13;20.38;;;2.80;;
33413;SDS011;60055;41.884;12.534;2023-10-31T12:36:39;20.15;;;2.83;;
33413;SDS011;60055;41.884;12.534;2023-10-31T12:39:06;40.47;;;4.13;;
33413;SDS011;60055;41.884;12.534;2023-10-31T12:41:34;28.00;;;4.22;;
33413;SDS011;60055;41.884;12.534;2023-10-31T12:44:00;40.60;;;4.32;;
33413;SDS011;60055;41.884;12.534;2023-10-31T12:46:27;21.70;;;2.85;;
33413;SDS011;60055;41.884;12.534;2023-10-31T12:48:59;52.20;;;4.72;;
33413;SDS011;60055;41.884;12.534;2023-10-31T12:51:24;25.05;;;3.00;;
33413;SDS011;60055;41.884;12.534;2023-10-31T12:53:50;24.00;;;3.10;;
33413;SDS011;60055;41.884;12.534;2023-10-31T12:59:08;20.65;;;2.90;;
33413;SDS011;60055;41.884;12.534;2023-10-31T13:01:35;18.20;;;2.35;;
33413;SDS011;60055;41.884;12.534;2023-10-31T13:04:02;15.93;;;2.72;;
33413;SDS011;60055;41.884;12.534;2023-10-31T13:06:28;13.60;;;2.55;;
33413;SDS011;60055;41.884;12.534;2023-10-31T13:08:57;19.17;;;3.05;;
33413;SDS011;60055;41.884;12.534;2023-10-31T13:11:23;23.00;;;3.40;;
33413;SDS011;60055;41.884;12.534;2023-10-31T13:13:53;13.88;;;2.58;;
33413;SDS011;60055;41.884;12.534;2023-10-31T13:16:19;15.85;;;3.05;;
33413;SDS011;60055;41.884;12.534;2023-10-31T13:18:44;20.17;;;2.83;;
33413;SDS011;60055;41.884;12.534;2023-10-31T13:21:10;15.00;;;2.75;;
33413;SDS011;60055;41.884;12.534;2023-10-31T13:23:37;15.95;;;3.17;;
33413;SDS011;60055;41.884;12.534;2023-10-31T13:26:03;19.95;;;2.95;;
33413;SDS011;60055;41.884;12.534;2023-10-31T13:28:29;22.23;;;2.72;;
33413;SDS011;60055;41.884;12.534;2023-10-31T13:30:56;19.10;;;3.00;;
33413;SDS011;60055;41.884;12.534;2023-10-31T13:33:21;33.28;;;3.83;;
33413;SDS011;60055;41.884;12.534;2023-10-31T13:35:47;25.98;;;3.20;;
33413;SDS011;60055;41.884;12.534;2023-10-31T13:38:12;17.00;;;2.92;;
33413;SDS011;60055;41.884;12.534;2023-10-31T13:40:38;19.02;;;3.00;;
33413;SDS011;60055;41.884;12.534;2023-10-31T13:43:04;13.80;;;2.53;;
33413;SDS011;60055;41.884;12.534;2023-10-31T13:45:30;33.13;;;3.85;;
33413;SDS011;60055;41.884;12.534;2023-10-31T13:47:56;23.75;;;2.83;;
33413;SDS011;60055;41.884;12.534;2023-10-31T13:50:21;30.90;;;3.10;;
33413;SDS011;60055;41.884;12.534;2023-10-31T13:52:48;26.30;;;2.78;;
33413;SDS011;60055;41.884;12.534;2023-10-31T13:55:14;16.50;;;2.72;;
33413;SDS011;60055;41.884;12.534;2023-10-31T13:57:39;25.70;;;3.03;;
33413;SDS011;60055;41.884;12.534;2023-10-31T14:00:05;22.15;;;4.53;;
33413;SDS011;60055;41.884;12.534;2023-10-31T14:02:34;17.15;;;3.00;;
33413;SDS011;60055;41.884;12.534;2023-10-31T14:05:00;19.02;;;3.05;;
33413;SDS011;60055;41.884;12.534;2023-10-31T14:07:26;25.95;;;3.70;;
33413;SDS011;60055;41.884;12.534;2023-10-31T14:09:55;25.05;;;3.17;;
33413;SDS011;60055;41.884;12.534;2023-10-31T14:12:21;24.30;;;6.38;;
33413;SDS011;60055;41.884;12.534;2023-10-31T14:14:47;25.05;;;4.07;;
33413;SDS011;60055;41.884;12.534;2023-10-31T14:17:14;22.27;;;3.83;;
33413;SDS011;60055;41.884;12.534;2023-10-31T14:19:42;58.55;;;29.17;;
33413;SDS011;60055;41.884;12.534;2023-10-31T14:22:08;23.42;;;5.18;;
33413;SDS011;60055;41.884;12.534;2023-10-31T14:24:33;27.85;;;3.90;;